Time;durP1;ratioP1;P1;durP2;ratioP2;P2;SDS_P1;SDS_P2;PMS_P1;PMS_P2;Temp;Humidity;BMP_temperature;BMP_pressure;BME280_temperature;BME280_humidity;BME280_pressure;Samples;Min_cycle;Max_cycle;Signal;HPM_P1;HPM_P2
2023/04/13 00:01:10;;;;;;;2.70;1.50;;;10.10;99.90;;;;;;5041265;28;20227;-65
2023/04/13 00:03:35;;;;;;;2.10;1.60;;;10.20;99.90;;;;;;5041575;28;20263;-65
2023/04/13 00:06:02;;;;;;;2.60;1.50;;;10.20;99.90;;;;;;5042188;28;20470;-65
2023/04/13 00:08:29;;;;;;;3.00;1.53;;;10.10;99.90;;;;;;5055059;28;20241;-65
2023/04/13 00:10:56;;;;;;;3.63;1.63;;;10.10;99.90;;;;;;5035209;28;20462;-65
2023/04/13 00:13:23;;;;;;;3.63;1.60;;;10.00;99.90;;;;;;5042521;28;20465;-65
2023/04/13 00:15:49;;;;;;;2.50;1.43;;;10.10;99.90;;;;;;5040705;28;20454;-65
2023/04/13 00:18:14;;;;;;;1.70;1.30;;;10.10;99.90;;;;;;5037340;28;20446;-65
2023/04/13 00:20:42;;;;;;;2.07;1.50;;;10.00;99.90;;;;;;5040095;28;20215;-65
2023/04/13 00:23:07;;;;;;;1.90;1.40;;;10.00;99.90;;;;;;5037010;28;20199;-65
2023/04/13 00:25:33;;;;;;;1.93;1.40;;;10.00;99.90;;;;;;5040019;28;20970;-65
2023/04/13 00:28:02;;;;;;;3.80;1.87;;;10.10;99.90;;;;;;5038513;28;20210;-65
2023/04/13 00:30:28;;;;;;;3.07;1.60;;;10.10;99.90;;;;;;5036792;28;20711;-65
2023/04/13 00:32:54;;;;;;;2.87;1.57;;;10.10;99.90;;;;;;5039924;28;20434;-65
2023/04/13 00:35:23;;;;;;;2.10;1.40;;;10.00;99.90;;;;;;5038846;28;20426;-65
2023/04/13 00:37:50;;;;;;;2.63;1.70;;;9.90;99.90;;;;;;5038957;28;20183;-65
2023/04/13 00:40:16;;;;;;;5.83;1.90;;;9.90;99.90;;;;;;5039588;28;20955;-65
2023/04/13 00:42:46;;;;;;;2.80;1.50;;;9.90;99.90;;;;;;5036629;28;20526;-65
2023/04/13 00:45:12;;;;;;;2.07;1.50;;;9.90;99.90;;;;;;5038484;28;20616;-65
2023/04/13 00:47:40;;;;;;;2.97;1.43;;;9.90;99.90;;;;;;5040504;28;20492;-65
2023/04/13 00:50:06;;;;;;;2.60;1.60;;;9.90;99.90;;;;;;5042668;28;20473;-65
2023/04/13 00:52:38;;;;;;;2.17;1.37;;;9.90;99.90;;;;;;5040521;28;20445;-65
2023/04/13 00:55:06;;;;;;;3.20;1.50;;;10.10;99.90;;;;;;5039749;28;20436;-65
2023/04/13 00:57:32;;;;;;;3.60;1.50;;;9.90;99.90;;;;;;5038800;28;20414;-65
2023/04/13 01:00:00;;;;;;;3.00;1.40;;;9.80;99.90;;;;;;5036132;28;21031;-65
2023/04/13 01:02:26;;;;;;;2.43;1.40;;;9.70;99.90;;;;;;5040012;28;20837;-65
2023/04/13 01:04:56;;;;;;;4.80;1.90;;;9.70;99.90;;;;;;5041784;28;20465;-65
2023/04/13 01:07:29;;;;;;;3.00;1.50;;;9.60;99.90;;;;;;5036621;28;20266;-65
2023/04/13 01:10:25;;;;;;;2.20;1.50;;;9.60;99.90;;;;;;5033819;28;20466;-65
2023/04/13 01:13:23;;;;;;;2.60;1.60;;;9.70;99.90;;;;;;5054376;28;20499;-65
2023/04/13 01:16:09;;;;;;;2.50;1.50;;;9.60;99.90;;;;;;5039504;28;20446;-65
2023/04/13 01:18:38;;;;;;;9.53;2.37;;;9.60;99.90;;;;;;5036168;28;20465;-65
2023/04/13 01:21:05;;;;;;;3.10;1.47;;;9.60;99.90;;;;;;5034724;28;20469;-65
2023/04/13 01:23:49;;;;;;;5.00;1.70;;;9.70;99.90;;;;;;5032610;28;20514;-65
2023/04/13 01:26:16;;;;;;;5.63;1.73;;;9.50;99.90;;;;;;5038477;28;20745;-65
2023/04/13 01:28:42;;;;;;;2.77;1.50;;;9.40;99.90;;;;;;5039317;28;20434;-65
2023/04/13 01:31:10;;;;;;;2.83;1.90;;;9.50;99.90;;;;;;5033450;28;20531;-65
2023/04/13 01:33:39;;;;;;;2.20;1.40;;;9.40;99.90;;;;;;5032638;28;20438;-65
2023/04/13 01:36:05;;;;;;;2.43;1.80;;;9.40;99.90;;;;;;5037246;28;20434;-65
2023/04/13 01:38:31;;;;;;;3.83;1.70;;;9.40;99.90;;;;;;5040352;28;20497;-65
2023/04/13 01:40:57;;;;;;;2.30;1.50;;;9.50;99.90;;;;;;5036198;28;21065;-65
2023/04/13 01:43:24;;;;;;;3.83;1.90;;;9.40;99.90;;;;;;5039441;28;20618;-65
2023/04/13 01:46:00;;;;;;;2.47;1.40;;;9.50;99.90;;;;;;5038028;28;20447;-65
2023/04/13 01:48:33;;;;;;;2.73;1.53;;;9.40;99.90;;;;;;5036855;28;20507;-65
2023/04/13 01:51:10;;;;;;;2.67;1.60;;;9.60;99.90;;;;;;5039516;28;20467;-65
2023/04/13 01:53:52;;;;;;;2.60;1.50;;;9.60;99.90;;;;;;5036468;28;20835;-65
2023/04/13 01:56:21;;;;;;;2.57;1.73;;;9.50;99.90;;;;;;5039382;28;20415;-65
2023/04/13 01:58:50;;;;;;;1.70;1.30;;;9.50;99.90;;;;;;5036460;28;20442;-65
2023/04/13 02:01:16;;;;;;;3.70;1.57;;;9.50;99.90;;;;;;5040296;28;20480;-65
2023/04/13 02:03:44;;;;;;;2.87;1.53;;;9.50;99.90;;;;;;5043030;28;20928;-65
2023/04/13 02:06:10;;;;;;;2.77;1.97;;;9.50;99.90;;;;;;5041555;28;20417;-65
2023/04/13 02:08:36;;;;;;;6.20;1.77;;;9.50;99.90;;;;;;5038716;28;20531;-66
2023/04/13 02:11:03;;;;;;;2.70;1.70;;;9.50;99.90;;;;;;5035002;28;20503;-65
2023/04/13 02:13:29;;;;;;;3.10;1.80;;;9.50;99.90;;;;;;5036951;28;20190;-65
2023/04/13 02:15:56;;;;;;;5.43;1.63;;;9.60;99.90;;;;;;5040211;28;20453;-65
2023/04/13 02:18:22;;;;;;;2.70;1.57;;;9.60;99.90;;;;;;5035249;28;20863;-65
2023/04/13 02:20:59;;;;;;;3.30;1.87;;;9.50;99.90;;;;;;5040245;28;20470;-65
2023/04/13 02:23:25;;;;;;;4.40;1.80;;;9.60;99.90;;;;;;5034601;28;20461;-65
2023/04/13 02:25:50;;;;;;;3.60;1.43;;;9.70;99.90;;;;;;5036834;28;20453;-66
2023/04/13 02:28:16;;;;;;;4.47;1.80;;;9.70;99.90;;;;;;5034567;28;20442;-65
2023/04/13 02:30:42;;;;;;;4.27;1.80;;;9.60;99.90;;;;;;5035781;28;20234;-65
2023/04/13 02:33:08;;;;;;;3.17;1.60;;;9.60;99.90;;;;;;5036171;28;20211;-65
2023/04/13 02:35:37;;;;;;;1.87;1.33;;;9.60;99.90;;;;;;5037511;28;20208;-65
2023/04/13 02:38:06;;;;;;;2.17;1.60;;;9.60;99.90;;;;;;5033902;28;20457;-65
2023/04/13 02:40:31;;;;;;;4.03;1.70;;;9.70;99.90;;;;;;5039006;28;20699;-65
2023/04/13 02:42:58;;;;;;;6.23;2.03;;;9.70;99.90;;;;;;5035427;28;20450;-65
2023/04/13 02:45:25;;;;;;;2.17;1.50;;;9.70;99.90;;;;;;5032173;28;20176;-65
2023/04/13 02:47:51;;;;;;;3.20;2.00;;;9.80;99.90;;;;;;5040162;28;20942;-65
2023/04/13 02:50:17;;;;;;;3.60;1.67;;;9.70;99.90;;;;;;5036495;28;20462;-65
2023/04/13 02:52:42;;;;;;;2.83;1.70;;;9.70;99.90;;;;;;5035097;28;20345;-65
2023/04/13 02:55:08;;;;;;;4.83;1.90;;;9.80;99.90;;;;;;5034387;28;20200;-65
2023/04/13 02:57:34;;;;;;;3.77;1.50;;;9.80;99.90;;;;;;5037420;28;20179;-65
2023/04/13 02:59:59;;;;;;;2.93;1.70;;;9.60;99.90;;;;;;5034993;28;20849;-65
2023/04/13 03:02:26;;;;;;;3.57;1.70;;;9.70;99.90;;;;;;5036721;28;20202;-65
2023/04/13 03:04:52;;;;;;;4.50;1.83;;;9.80;99.90;;;;;;5037097;28;20199;-65
2023/04/13 03:07:18;;;;;;;5.00;1.80;;;9.80;99.90;;;;;;5042268;28;20438;-65
2023/04/13 03:09:44;;;;;;;2.80;1.67;;;9.90;99.90;;;;;;5042460;28;20180;-65
2023/04/13 03:12:10;;;;;;;5.00;1.70;;;9.70;99.90;;;;;;5043233;28;20472;-65
2023/04/13 03:14:36;;;;;;;4.67;1.90;;;9.80;99.90;;;;;;5042894;28;20441;-65
2023/04/13 03:17:03;;;;;;;3.27;1.83;;;9.70;99.90;;;;;;5041172;28;20195;-65
2023/04/13 03:19:29;;;;;;;4.20;1.90;;;9.80;99.90;;;;;;5044071;28;20509;-65
2023/04/13 03:21:55;;;;;;;8.00;2.33;;;9.90;99.90;;;;;;5041978;28;20550;-65
2023/04/13 03:24:21;;;;;;;4.00;1.90;;;9.90;99.90;;;;;;5046274;28;20438;-65
2023/04/13 03:26:46;;;;;;;5.63;1.90;;;9.80;99.90;;;;;;5042382;28;20218;-65
2023/04/13 03:29:12;;;;;;;7.83;1.80;;;9.80;99.90;;;;;;5039417;28;20279;-65
2023/04/13 03:31:38;;;;;;;5.20;2.20;;;9.80;99.90;;;;;;5041837;28;20300;-65
2023/04/13 03:34:03;;;;;;;9.03;2.40;;;9.80;99.90;;;;;;5041127;28;20188;-65
2023/04/13 03:36:30;;;;;;;9.97;2.43;;;9.80;99.90;;;;;;5038125;28;20616;-65
2023/04/13 03:38:56;;;;;;;6.23;1.63;;;9.80;99.90;;;;;;5039833;28;20172;-65
2023/04/13 03:41:22;;;;;;;2.77;1.70;;;9.80;99.90;;;;;;5040986;28;20450;-65
2023/04/13 03:43:48;;;;;;;4.63;1.80;;;9.80;99.90;;;;;;5040777;28;20461;-65
2023/04/13 03:46:14;;;;;;;3.07;2.10;;;9.80;99.90;;;;;;5038100;28;20229;-65
2023/04/13 03:48:40;;;;;;;2.50;1.87;;;9.80;99.90;;;;;;5039447;28;20430;-65
2023/04/13 03:51:06;;;;;;;8.50;2.00;;;9.70;99.90;;;;;;5039664;28;20558;-65
2023/04/13 03:53:35;;;;;;;5.27;1.90;;;9.80;99.90;;;;;;5039378;28;20437;-65
2023/04/13 03:56:00;;;;;;;2.57;1.90;;;9.80;99.90;;;;;;5040021;28;20525;-65
2023/04/13 03:58:26;;;;;;;3.60;1.80;;;9.80;99.90;;;;;;5040056;28;20528;-65
2023/04/13 04:00:51;;;;;;;6.93;1.90;;;9.80;99.90;;;;;;5039976;28;20217;-65
2023/04/13 04:03:17;;;;;;;2.60;1.83;;;9.80;99.90;;;;;;5039527;28;20187;-65
2023/04/13 04:05:43;;;;;;;5.27;1.90;;;9.80;99.90;;;;;;5038833;28;20176;-65
2023/04/13 04:08:09;;;;;;;3.00;2.00;;;9.60;99.90;;;;;;5038343;28;20438;-65
2023/04/13 04:10:34;;;;;;;4.90;2.37;;;9.70;99.90;;;;;;5039127;28;20239;-65
2023/04/13 04:13:00;;;;;;;3.83;1.83;;;9.60;99.90;;;;;;5040986;28;20712;-65
2023/04/13 04:15:25;;;;;;;5.10;2.20;;;9.70;99.90;;;;;;5041103;28;21495;-65
2023/04/13 04:17:51;;;;;;;6.33;2.03;;;9.80;99.90;;;;;;5041224;28;20198;-65
2023/04/13 04:20:17;;;;;;;4.13;1.83;;;9.70;99.90;;;;;;5040711;28;20243;-65
2023/04/13 04:22:43;;;;;;;9.23;2.20;;;9.70;99.90;;;;;;5036313;28;20583;-65
2023/04/13 04:25:10;;;;;;;5.50;2.20;;;9.80;99.90;;;;;;5039784;28;20171;-65
2023/04/13 04:27:37;;;;;;;4.50;2.20;;;9.80;99.90;;;;;;5037569;28;20438;-65
2023/04/13 04:30:04;;;;;;;6.07;1.97;;;9.80;99.90;;;;;;5042363;28;20462;-65
2023/04/13 04:32:32;;;;;;;8.70;3.67;;;9.70;99.90;;;;;;5040792;28;20449;-65
2023/04/13 04:34:58;;;;;;;7.33;2.13;;;9.80;99.90;;;;;;5050938;28;20443;-65
2023/04/13 04:37:24;;;;;;;6.57;2.13;;;9.80;99.90;;;;;;5040158;28;21297;-65
2023/04/13 04:39:50;;;;;;;9.63;2.50;;;9.80;99.90;;;;;;5039399;28;20458;-65
2023/04/13 04:42:17;;;;;;;2.67;1.93;;;9.90;99.90;;;;;;5038493;28;20437;-66
2023/04/13 04:44:43;;;;;;;5.17;2.40;;;9.80;99.90;;;;;;5042064;28;20168;-65
2023/04/13 04:47:12;;;;;;;4.67;1.97;;;9.80;99.90;;;;;;5040170;28;20443;-65
2023/04/13 04:49:37;;;;;;;5.13;2.60;;;9.80;99.90;;;;;;5041606;28;20990;-65
2023/04/13 04:52:03;;;;;;;4.77;2.13;;;9.80;99.90;;;;;;5040414;28;21033;-65
2023/04/13 04:54:29;;;;;;;2.70;2.10;;;9.80;99.90;;;;;;5037771;28;20263;-65
2023/04/13 04:56:56;;;;;;;5.20;2.17;;;9.80;99.90;;;;;;5046312;28;20210;-65
2023/04/13 04:59:22;;;;;;;8.97;3.07;;;9.80;99.90;;;;;;5043349;28;20672;-65
2023/04/13 05:01:48;;;;;;;8.33;3.00;;;9.80;99.90;;;;;;5038207;28;20450;-65
2023/04/13 05:04:14;;;;;;;3.30;2.20;;;9.70;99.90;;;;;;5041136;28;20488;-65
2023/04/13 05:06:40;;;;;;;6.67;2.20;;;9.80;99.90;;;;;;5043808;28;20188;-65
2023/04/13 05:09:06;;;;;;;5.90;2.97;;;9.80;99.90;;;;;;5042552;28;20445;-65
2023/04/13 05:11:32;;;;;;;4.63;2.00;;;9.80;99.90;;;;;;5042261;28;20206;-65
2023/04/13 05:13:58;;;;;;;6.83;2.43;;;9.80;99.90;;;;;;5041188;28;20179;-65
2023/04/13 05:16:24;;;;;;;4.57;1.87;;;9.70;99.90;;;;;;5037272;28;20434;-65
2023/04/13 05:18:50;;;;;;;10.37;2.60;;;9.70;99.90;;;;;;5037347;28;21181;-65
2023/04/13 05:21:17;;;;;;;2.70;2.13;;;9.70;99.90;;;;;;5034025;28;20466;-65
2023/04/13 05:23:43;;;;;;;10.10;2.70;;;9.70;99.90;;;;;;5039244;28;20434;-65
2023/04/13 05:26:10;;;;;;;5.57;2.23;;;9.70;99.90;;;;;;5034472;28;20442;-65
2023/04/13 05:28:37;;;;;;;7.70;2.73;;;9.70;99.90;;;;;;5038733;28;20426;-65
2023/04/13 05:31:03;;;;;;;10.20;2.53;;;9.70;99.90;;;;;;5040538;28;20462;-65
2023/04/13 05:33:29;;;;;;;7.67;2.53;;;9.70;99.90;;;;;;5033689;28;20441;-65
2023/04/13 05:35:55;;;;;;;4.53;2.07;;;9.70;99.90;;;;;;5036384;28;20434;-65
2023/04/13 05:38:21;;;;;;;6.20;2.40;;;9.70;99.90;;;;;;5034963;28;20917;-65
2023/04/13 05:40:47;;;;;;;6.67;2.33;;;9.80;99.90;;;;;;5040004;28;20466;-65
2023/04/13 05:43:13;;;;;;;5.10;2.13;;;9.60;99.90;;;;;;5035424;28;20183;-65
2023/04/13 05:45:39;;;;;;;5.63;2.70;;;9.60;99.90;;;;;;5035263;28;20622;-66
2023/04/13 05:48:05;;;;;;;6.93;2.27;;;9.50;99.90;;;;;;5032479;28;20445;-65
2023/04/13 05:50:30;;;;;;;3.50;1.83;;;9.60;99.90;;;;;;5039382;28;20200;-65
2023/04/13 05:52:56;;;;;;;4.43;1.90;;;9.60;99.90;;;;;;5042268;28;20990;-65
2023/04/13 05:55:23;;;;;;;4.10;2.00;;;9.70;99.90;;;;;;5036654;28;20195;-65
2023/04/13 05:57:49;;;;;;;3.00;1.87;;;9.70;99.90;;;;;;5034347;28;20453;-65
2023/04/13 06:00:17;;;;;;;4.40;2.63;;;9.80;99.90;;;;;;5036352;28;20508;-65
2023/04/13 06:02:49;;;;;;;5.93;2.10;;;9.70;99.90;;;;;;5030215;28;20430;-65
2023/04/13 06:05:16;;;;;;;10.90;2.43;;;9.70;99.90;;;;;;5034262;28;20466;-65
2023/04/13 06:07:43;;;;;;;3.60;2.13;;;9.70;99.90;;;;;;5036603;28;20828;-65
2023/04/13 06:10:09;;;;;;;4.60;2.07;;;9.70;99.90;;;;;;5038083;28;20462;-65
2023/04/13 06:12:35;;;;;;;6.73;2.37;;;9.70;99.90;;;;;;5035260;28;20442;-65
2023/04/13 06:15:01;;;;;;;5.63;2.63;;;9.70;99.90;;;;;;5036709;28;20440;-65
2023/04/13 06:17:26;;;;;;;3.77;2.30;;;9.80;99.90;;;;;;5035145;28;20673;-65
2023/04/13 06:19:53;;;;;;;2.43;1.80;;;9.80;99.90;;;;;;5035309;28;20908;-65
2023/04/13 06:22:19;;;;;;;6.23;1.90;;;9.70;99.90;;;;;;5039221;28;20199;-65
2023/04/13 06:24:44;;;;;;;16.20;3.23;;;9.80;99.90;;;;;;5044253;28;20469;-65
2023/04/13 06:27:10;;;;;;;5.87;2.83;;;9.80;99.90;;;;;;5049085;28;20287;-65
2023/04/13 06:29:37;;;;;;;7.80;3.23;;;9.90;99.90;;;;;;5032725;28;20188;-65
2023/04/13 06:32:03;;;;;;;3.43;2.57;;;10.00;99.90;;;;;;5037232;28;20228;-65
2023/04/13 06:34:29;;;;;;;5.17;2.10;;;10.00;99.90;;;;;;5034854;28;20749;-65
2023/04/13 06:36:56;;;;;;;8.30;2.87;;;10.10;99.90;;;;;;5040919;28;20503;-66
2023/04/13 06:39:21;;;;;;;5.17;2.60;;;10.00;99.90;;;;;;5036484;28;20810;-65
2023/04/13 06:41:47;;;;;;;7.40;2.40;;;10.00;99.90;;;;;;5039066;28;20626;-65
2023/04/13 06:44:13;;;;;;;5.47;2.03;;;10.10;99.90;;;;;;5042330;28;20180;-65
2023/04/13 06:46:38;;;;;;;4.53;2.43;;;10.30;99.90;;;;;;5042204;28;20183;-65
2023/04/13 06:49:04;;;;;;;4.53;2.13;;;10.40;99.90;;;;;;5040355;28;20645;-65
2023/04/13 06:51:30;;;;;;;7.77;2.30;;;10.40;99.90;;;;;;5042446;28;20298;-65
2023/04/13 06:53:55;;;;;;;6.70;2.37;;;10.40;99.90;;;;;;5038245;28;20271;-65
2023/04/13 06:56:21;;;;;;;4.77;2.07;;;10.40;99.90;;;;;;5039564;28;20184;-65
2023/04/13 06:58:46;;;;;;;5.27;2.40;;;10.40;99.90;;;;;;5039585;28;20690;-65
2023/04/13 07:01:12;;;;;;;5.13;2.40;;;10.30;99.90;;;;;;5045059;28;20281;-66
2023/04/13 07:03:38;;;;;;;8.20;2.37;;;10.30;99.90;;;;;;5038804;28;20176;-65
2023/04/13 07:06:04;;;;;;;4.80;2.60;;;10.40;99.90;;;;;;5041534;28;20206;-65
2023/04/13 07:08:31;;;;;;;5.60;2.40;;;10.30;99.90;;;;;;5037976;28;20211;-65
2023/04/13 07:10:57;;;;;;;7.23;2.30;;;10.40;99.90;;;;;;5039058;28;20482;-66
2023/04/13 07:13:24;;;;;;;6.57;2.53;;;10.30;99.90;;;;;;5036660;28;20441;-65
2023/04/13 07:15:49;;;;;;;3.97;2.30;;;10.30;99.90;;;;;;5040525;28;21045;-66
2023/04/13 07:18:15;;;;;;;5.10;2.70;;;10.40;99.90;;;;;;5040102;28;20470;-66
2023/04/13 07:20:40;;;;;;;6.17;2.63;;;10.50;99.90;;;;;;5042088;28;20230;-66
2023/04/13 07:23:07;;;;;;;7.27;2.83;;;10.70;99.90;;;;;;5041611;28;20634;-66
2023/04/13 07:25:33;;;;;;;8.27;2.40;;;10.70;99.90;;;;;;5040043;28;20176;-66
2023/04/13 07:27:59;;;;;;;9.60;3.23;;;10.70;99.90;;;;;;5041181;28;20485;-65
2023/04/13 07:30:25;;;;;;;6.30;3.07;;;10.80;99.90;;;;;;5035178;28;20211;-67
2023/04/13 07:32:52;;;;;;;6.27;2.63;;;10.80;99.90;;;;;;5037129;28;20285;-65
2023/04/13 07:35:17;;;;;;;6.23;2.73;;;10.80;99.90;;;;;;5035500;28;21039;-67
2023/04/13 07:37:45;;;;;;;8.30;2.90;;;10.60;99.90;;;;;;5035720;28;20441;-67
2023/04/13 07:40:11;;;;;;;7.17;2.57;;;10.60;99.90;;;;;;5046736;28;20226;-68
2023/04/13 07:42:38;;;;;;;5.53;2.43;;;10.60;99.90;;;;;;5041653;28;20422;-67
2023/04/13 07:45:04;;;;;;;6.07;2.20;;;10.70;99.90;;;;;;5039782;28;20447;-68
2023/04/13 07:47:30;;;;;;;11.07;2.70;;;10.70;99.90;;;;;;5040210;28;20955;-67
2023/04/13 07:49:55;;;;;;;5.93;2.77;;;10.70;99.90;;;;;;5041129;28;20458;-67
2023/04/13 07:52:21;;;;;;;8.13;2.60;;;10.80;99.90;;;;;;5040534;28;20183;-67
2023/04/13 07:54:47;;;;;;;8.50;2.47;;;11.00;99.90;;;;;;5041748;28;20192;-67
2023/04/13 07:57:13;;;;;;;8.37;2.87;;;11.20;99.90;;;;;;5042347;28;21023;-68
2023/04/13 07:59:39;;;;;;;4.87;2.27;;;11.20;99.90;;;;;;5040692;28;20709;-67
2023/04/13 08:02:05;;;;;;;9.03;2.67;;;11.30;99.90;;;;;;5041469;28;20438;-67
2023/04/13 08:04:32;;;;;;;4.43;2.60;;;11.30;99.90;;;;;;5041487;28;20258;-66
2023/04/13 08:07:02;;;;;;;7.40;2.70;;;11.40;99.90;;;;;;5042426;28;20423;-67
2023/04/13 08:09:31;;;;;;;9.03;2.50;;;11.30;99.90;;;;;;5044534;28;20429;-67
2023/04/13 08:11:57;;;;;;;7.20;2.80;;;11.40;99.90;;;;;;5034591;28;20933;-67
2023/04/13 08:14:23;;;;;;;7.20;2.90;;;11.40;99.90;;;;;;5051208;28;20517;-66
2023/04/13 08:16:48;;;;;;;6.83;2.23;;;11.10;99.90;;;;;;5037944;28;20453;-67
2023/04/13 08:19:14;;;;;;;5.70;2.53;;;11.00;99.90;;;;;;5042000;28;20203;-66
2023/04/13 08:21:40;;;;;;;3.43;2.30;;;10.60;99.90;;;;;;5041897;28;20206;-66
2023/04/13 08:24:06;;;;;;;7.13;3.10;;;10.20;99.90;;;;;;5042582;28;20634;-67
2023/04/13 08:26:31;;;;;;;12.90;2.87;;;10.00;99.90;;;;;;5039907;28;20501;-67
2023/04/13 08:28:57;;;;;;;10.50;2.73;;;10.00;99.90;;;;;;5042463;28;20870;-67
2023/04/13 08:31:22;;;;;;;7.13;3.57;;;10.10;99.90;;;;;;5041799;28;20203;-67
2023/04/13 08:33:48;;;;;;;13.30;3.00;;;10.10;99.90;;;;;;5040975;28;20192;-67
2023/04/13 08:36:16;;;;;;;7.73;2.83;;;10.20;99.90;;;;;;5040305;28;20829;-67
2023/04/13 08:38:41;;;;;;;10.70;3.13;;;10.30;99.90;;;;;;5038763;28;20306;-67
2023/04/13 08:41:09;;;;;;;9.20;2.23;;;10.20;99.90;;;;;;5040433;28;21084;-67
2023/04/13 08:43:35;;;;;;;9.77;2.63;;;10.30;99.90;;;;;;5039022;28;20705;-67
2023/04/13 08:46:03;;;;;;;6.40;3.20;;;10.40;99.90;;;;;;5039834;28;20438;-67
2023/04/13 08:48:28;;;;;;;7.40;3.33;;;10.40;99.90;;;;;;5042177;28;20447;-67
2023/04/13 08:50:57;;;;;;;11.70;2.83;;;10.40;99.90;;;;;;5042494;28;20536;-67
2023/04/13 08:53:22;;;;;;;14.03;2.77;;;10.30;99.90;;;;;;5036437;28;20191;-67
2023/04/13 08:55:51;;;;;;;8.87;3.00;;;10.50;99.90;;;;;;5041993;28;20430;-65
2023/04/13 08:58:19;;;;;;;11.30;2.97;;;10.50;99.90;;;;;;5041587;28;20195;-67
2023/04/13 09:00:48;;;;;;;5.03;2.53;;;10.60;99.90;;;;;;5037997;28;20608;-67
2023/04/13 09:03:21;;;;;;;12.43;2.87;;;10.70;99.90;;;;;;5044740;28;20915;-67
2023/04/13 09:06:00;;;;;;;6.73;2.93;;;10.70;99.90;;;;;;5038903;28;20785;-68
2023/04/13 09:08:26;;;;;;;16.43;3.70;;;10.70;99.90;;;;;;5044297;28;20415;-67
2023/04/13 09:10:55;;;;;;;15.50;3.17;;;10.70;99.90;;;;;;5040372;28;20462;-66
2023/04/13 09:13:21;;;;;;;9.97;2.80;;;10.80;99.90;;;;;;5042281;28;21253;-66
2023/04/13 09:15:47;;;;;;;7.83;2.93;;;10.80;99.90;;;;;;5042880;28;20438;-66
2023/04/13 09:18:13;;;;;;;10.03;3.10;;;10.70;99.90;;;;;;5040161;28;20184;-66
2023/04/13 09:20:39;;;;;;;6.57;2.67;;;10.80;99.90;;;;;;5040285;28;20470;-67
2023/04/13 09:23:15;;;;;;;10.73;3.13;;;10.80;99.90;;;;;;5036880;28;20445;-66
2023/04/13 09:25:41;;;;;;;10.73;3.00;;;10.80;99.90;;;;;;5040528;28;20424;-67
2023/04/13 09:28:16;;;;;;;10.87;2.43;;;10.80;99.90;;;;;;5035712;28;20547;-67
2023/04/13 09:30:41;;;;;;;9.97;3.33;;;10.70;99.90;;;;;;5038960;28;20448;-66
2023/04/13 09:33:09;;;;;;;11.70;4.30;;;10.80;99.90;;;;;;5037489;28;20434;-67
2023/04/13 09:35:35;;;;;;;11.17;3.00;;;10.70;99.90;;;;;;5042245;28;20199;-66
2023/04/13 09:38:03;;;;;;;9.10;3.10;;;10.60;99.90;;;;;;5040811;28;20438;-68
2023/04/13 09:40:29;;;;;;;11.80;3.00;;;10.90;99.90;;;;;;5039409;28;20839;-68
2023/04/13 09:43:00;;;;;;;11.07;3.20;;;11.00;99.90;;;;;;5043394;28;20427;-67
2023/04/13 09:45:43;;;;;;;8.70;3.30;;;11.00;99.90;;;;;;5039924;28;20453;-67
2023/04/13 09:48:35;;;;;;;14.17;3.10;;;10.90;99.90;;;;;;5033013;28;20461;-66
2023/04/13 09:51:03;;;;;;;10.00;3.23;;;11.00;99.90;;;;;;5042171;28;20537;-66
2023/04/13 09:53:48;;;;;;;6.60;2.37;;;11.10;99.90;;;;;;5037997;28;20529;-67
2023/04/13 09:56:15;;;;;;;6.27;2.90;;;11.00;99.90;;;;;;5034859;28;20441;-68
2023/04/13 09:58:45;;;;;;;5.47;2.40;;;11.00;99.90;;;;;;5042606;28;20442;-67
2023/04/13 10:01:14;;;;;;;7.90;2.87;;;11.00;99.90;;;;;;5041349;28;20462;-67
2023/04/13 10:03:42;;;;;;;4.00;2.20;;;11.10;99.90;;;;;;5042603;28;20427;-68
2023/04/13 10:06:08;;;;;;;6.00;2.77;;;11.30;99.90;;;;;;5038024;28;20449;-67
2023/04/13 10:08:38;;;;;;;7.07;3.00;;;11.30;99.90;;;;;;5041613;28;20772;-68
2023/04/13 10:11:14;;;;;;;12.63;3.13;;;11.70;99.90;;;;;;5041343;28;20496;-68
2023/04/13 10:13:51;;;;;;;8.20;3.17;;;11.80;99.90;;;;;;5038854;28;20450;-67
2023/04/13 10:16:35;;;;;;;5.70;3.10;;;11.90;99.90;;;;;;5048473;28;20540;-66
2023/04/13 10:19:10;;;;;;;4.30;2.40;;;12.00;99.90;;;;;;5039882;28;21317;-66
2023/04/13 10:21:39;;;;;;;8.47;2.87;;;12.10;99.90;;;;;;5038799;28;20453;-66
2023/04/13 10:24:07;;;;;;;6.17;2.87;;;12.20;99.90;;;;;;5037443;28;20449;-65
2023/04/13 10:26:35;;;;;;;6.57;3.40;;;12.10;99.90;;;;;;5042696;28;20415;-65
2023/04/13 10:29:02;;;;;;;6.17;2.70;;;12.10;99.90;;;;;;5038427;28;20453;-65
2023/04/13 10:31:55;;;;;;;7.27;3.00;;;11.90;99.90;;;;;;5037366;28;20454;-65
2023/04/13 10:34:26;;;;;;;6.00;2.37;;;11.90;99.90;;;;;;5036411;28;20449;-64
2023/04/13 10:36:54;;;;;;;6.57;2.60;;;11.70;99.90;;;;;;5036476;28;20443;-64
2023/04/13 10:39:31;;;;;;;8.23;2.80;;;11.60;99.90;;;;;;5037456;28;20825;-64
2023/04/13 10:42:07;;;;;;;6.10;2.50;;;11.60;99.90;;;;;;5040218;28;20443;-65
2023/04/13 10:44:52;;;;;;;11.10;3.00;;;11.60;99.90;;;;;;5038794;28;20457;-66
2023/04/13 10:47:20;;;;;;;8.17;3.17;;;11.70;99.90;;;;;;5031247;28;20447;-66
2023/04/13 10:49:47;;;;;;;7.57;2.90;;;11.70;99.90;;;;;;5035053;28;20955;-67
2023/04/13 10:52:14;;;;;;;5.93;2.20;;;11.70;99.90;;;;;;5031945;28;20442;-67
2023/04/13 10:54:40;;;;;;;10.00;2.90;;;11.90;99.90;;;;;;5039014;28;20488;-67
2023/04/13 10:57:08;;;;;;;9.23;2.50;;;12.20;99.90;;;;;;5042476;28;20424;-66
2023/04/13 10:59:48;;;;;;;5.33;2.70;;;12.40;99.90;;;;;;5036400;28;20537;-67
2023/04/13 11:02:16;;;;;;;5.93;2.30;;;12.40;99.90;;;;;;5037607;28;20426;-66
2023/04/13 11:04:44;;;;;;;3.90;2.30;;;12.40;99.90;;;;;;5037770;28;20419;-66
2023/04/13 11:07:15;;;;;;;6.77;2.80;;;12.40;99.90;;;;;;5040424;28;20415;-67
2023/04/13 11:09:42;;;;;;;6.10;3.27;;;12.60;99.90;;;;;;5042897;28;20423;-67
2023/04/13 11:12:11;;;;;;;10.67;2.67;;;12.70;99.90;;;;;;5034379;28;20808;-67
2023/04/13 11:14:37;;;;;;;4.63;2.70;;;12.60;99.90;;;;;;5035191;28;20513;-67
2023/04/13 11:17:07;;;;;;;6.27;3.47;;;12.60;99.90;;;;;;5041950;28;20430;-67
2023/04/13 11:19:33;;;;;;;5.63;2.43;;;12.50;99.90;;;;;;5039251;28;20474;-67
2023/04/13 11:22:00;;;;;;;6.83;3.23;;;12.50;99.90;;;;;;5036765;28;20442;-67
2023/04/13 11:24:27;;;;;;;6.83;3.10;;;12.40;99.90;;;;;;5037724;28;20437;-67
2023/04/13 11:26:56;;;;;;;6.93;2.60;;;12.50;99.90;;;;;;5040478;28;20418;-67
2023/04/13 11:29:22;;;;;;;11.97;3.20;;;12.50;99.90;;;;;;5040793;28;20438;-67
2023/04/13 11:31:47;;;;;;;4.90;2.80;;;12.60;99.90;;;;;;5042074;28;20461;-67
2023/04/13 11:34:25;;;;;;;8.77;2.90;;;12.40;99.90;;;;;;5043465;28;20171;-67
2023/04/13 11:37:01;;;;;;;6.97;2.83;;;12.40;99.90;;;;;;5041830;28;20259;-67
2023/04/13 11:39:27;;;;;;;6.70;2.53;;;12.50;99.90;;;;;;5035376;28;20967;-67
2023/04/13 11:41:54;;;;;;;4.37;2.53;;;12.50;99.90;;;;;;5042377;28;20530;-66
2023/04/13 11:44:21;;;;;;;5.80;3.00;;;12.60;99.90;;;;;;5031476;28;20438;-67
2023/04/13 11:46:47;;;;;;;7.03;3.07;;;12.90;99.90;;;;;;5043529;28;20931;-67
2023/04/13 11:49:12;;;;;;;14.63;3.63;;;13.30;99.90;;;;;;5038111;28;20443;-67
2023/04/13 11:51:38;;;;;;;11.13;3.20;;;13.40;99.90;;;;;;5039173;28;20211;-66
2023/04/13 11:54:05;;;;;;;3.00;2.30;;;13.60;99.90;;;;;;5037755;28;20188;-67
2023/04/13 11:56:31;;;;;;;7.43;3.07;;;13.90;99.90;;;;;;5038673;28;20177;-67
2023/04/13 11:58:57;;;;;;;6.13;2.73;;;13.80;99.90;;;;;;5042966;28;20406;-67
2023/04/13 12:01:23;;;;;;;6.43;2.60;;;13.90;99.90;;;;;;5041780;28;20680;-66
2023/04/13 12:03:48;;;;;;;5.80;3.20;;;13.90;99.90;;;;;;5042719;28;20441;-67
2023/04/13 12:06:15;;;;;;;5.30;3.17;;;14.50;99.90;;;;;;5046021;28;20533;-67
2023/04/13 12:08:42;;;;;;;5.40;2.60;;;15.00;99.90;;;;;;5043389;28;20204;-67
2023/04/13 12:11:09;;;;;;;4.57;2.50;;;14.80;99.90;;;;;;5043599;28;20450;-67
2023/04/13 12:13:39;;;;;;;6.37;2.77;;;15.50;99.90;;;;;;5040321;28;20443;-67
2023/04/13 12:16:05;;;;;;;6.73;3.27;;;16.10;99.90;;;;;;5045332;28;20430;-67
2023/04/13 12:18:31;;;;;;;7.43;3.80;;;16.00;99.90;;;;;;5042105;28;20426;-67
2023/04/13 12:21:00;;;;;;;5.40;3.10;;;16.30;99.90;;;;;;5041789;28;20704;-67
2023/04/13 12:23:26;;;;;;;10.90;3.20;;;16.50;99.90;;;;;;5038912;28;20445;-67
2023/04/13 12:25:58;;;;;;;4.83;2.70;;;16.00;99.90;;;;;;5042067;28;20426;-67
2023/04/13 12:28:32;;;;;;;5.60;2.90;;;15.30;99.90;;;;;;5042174;28;20437;-67
2023/04/13 12:31:02;;;;;;;7.90;3.37;;;15.20;99.90;;;;;;5041181;28;20695;-67
2023/04/13 12:33:28;;;;;;;6.27;3.33;;;15.20;99.90;;;;;;5041446;28;20447;-66
2023/04/13 12:35:54;;;;;;;7.03;2.60;;;14.90;99.90;;;;;;5043887;28;20777;-67
2023/04/13 12:38:19;;;;;;;4.90;2.60;;;14.60;99.90;;;;;;5044932;28;20180;-66
2023/04/13 12:40:45;;;;;;;4.87;2.27;;;14.40;99.90;;;;;;5036628;28;20376;-67
2023/04/13 12:43:11;;;;;;;2.77;1.80;;;14.60;99.90;;;;;;5042970;28;20176;-67
2023/04/13 12:45:36;;;;;;;4.83;2.10;;;14.80;99.90;;;;;;5040623;28;20253;-67
2023/04/13 12:48:02;;;;;;;4.10;2.20;;;15.00;99.90;;;;;;5038372;28;20184;-67
2023/04/13 12:50:27;;;;;;;6.23;2.50;;;15.40;99.90;;;;;;5039677;28;20286;-67
2023/04/13 12:52:53;;;;;;;4.30;2.10;;;15.90;99.90;;;;;;5040749;28;20184;-67